createdAt,value
2023-05-09T00:00:11.034Z,10.75
2023-05-09T00:01:14.281Z,10.72
2023-05-09T00:02:16.260Z,10.72
2023-05-09T00:03:18.097Z,10.72
2023-05-09T00:04:20.993Z,10.71
2023-05-09T00:05:23.036Z,10.69
2023-05-09T00:06:27.667Z,10.69
2023-05-09T00:07:30.235Z,10.69
2023-05-09T00:08:32.094Z,10.67
2023-05-09T00:09:33.888Z,10.66
2023-05-09T00:10:36.661Z,10.66
2023-05-09T00:11:39.201Z,10.64
2023-05-09T00:12:43.593Z,10.64
2023-05-09T00:13:46.095Z,10.62
2023-05-09T00:14:51.696Z,10.62
2023-05-09T00:15:57.423Z,10.61
2023-05-09T00:16:59.999Z,10.60
2023-05-09T00:18:01.759Z,10.62
2023-05-09T00:19:04.497Z,10.61
2023-05-09T00:20:12.117Z,10.61
2023-05-09T00:21:13.992Z,10.60
2023-05-09T00:22:17.722Z,10.59
2023-05-09T00:23:19.820Z,10.59
2023-05-09T00:24:21.598Z,10.58
2023-05-09T00:25:23.560Z,10.56
2023-05-09T00:26:26.264Z,10.54
2023-05-09T00:27:30.543Z,10.52
2023-05-09T00:28:32.771Z,10.51
2023-05-09T00:29:34.527Z,10.49
2023-05-09T00:30:36.264Z,10.50
2023-05-09T00:31:38.004Z,10.49
2023-05-09T00:32:41.355Z,10.47
2023-05-09T00:33:43.212Z,10.47
2023-05-09T00:34:44.960Z,10.47
2023-05-09T00:35:47.098Z,10.46
2023-05-09T00:36:49.832Z,10.47
2023-05-09T00:37:51.579Z,10.47
2023-05-09T00:38:53.355Z,10.46
2023-05-09T00:39:55.308Z,10.46
2023-05-09T00:40:57.123Z,10.45
2023-05-09T00:41:58.937Z,10.45
2023-05-09T00:43:00.661Z,10.45
2023-05-09T00:44:02.500Z,10.45
2023-05-09T00:45:05.284Z,10.45
2023-05-09T00:46:07.488Z,10.45
2023-05-09T00:47:09.387Z,10.44
2023-05-09T00:48:11.493Z,10.43
2023-05-09T00:49:13.768Z,10.42
2023-05-09T00:50:16.130Z,10.43
2023-05-09T00:51:18.483Z,10.39
2023-05-09T00:52:25.681Z,10.41
2023-05-09T00:53:27.944Z,10.39
2023-05-09T00:54:30.038Z,10.40
2023-05-09T00:55:32.372Z,10.42
2023-05-09T00:56:34.367Z,10.40
2023-05-09T00:57:37.247Z,10.40
2023-05-09T00:58:39.088Z,10.41
2023-05-09T00:59:41.098Z,10.40
2023-05-09T01:00:43.411Z,10.39
2023-05-09T01:01:46.213Z,10.38
2023-05-09T01:02:55.149Z,10.34
2023-05-09T01:03:57.252Z,10.38
2023-05-09T01:04:59.219Z,10.32
2023-05-09T01:06:25.925Z,10.37
2023-05-09T01:08:17.589Z,10.38
2023-05-09T01:09:42.288Z,10.36
2023-05-09T01:10:59.738Z,10.34
2023-05-09T01:12:23.611Z,10.36
2023-05-09T01:14:08.734Z,10.35
2023-05-09T01:15:26.661Z,10.35
2023-05-09T01:16:43.726Z,10.33
2023-05-09T01:18:08.180Z,10.34
2023-05-09T01:19:42.963Z,10.34
2023-05-09T01:21:11.665Z,10.34
2023-05-09T01:22:16.380Z,10.32
2023-05-09T01:23:45.356Z,10.31
2023-05-09T01:25:23.158Z,10.32
2023-05-09T01:26:41.719Z,10.31
2023-05-09T01:28:14.331Z,10.30
2023-05-09T01:29:38.220Z,10.30
2023-05-09T01:30:45.793Z,10.30
2023-05-09T01:31:49.830Z,10.31
2023-05-09T01:32:59.426Z,10.30
2023-05-09T01:34:05.264Z,10.27
2023-05-09T01:35:09.688Z,10.27
2023-05-09T01:36:18.439Z,10.27
2023-05-09T01:37:31.892Z,10.26
2023-05-09T01:38:38.904Z,10.24
2023-05-09T01:39:49.185Z,10.23
2023-05-09T01:40:56.858Z,10.22
2023-05-09T01:42:03.949Z,10.21
2023-05-09T01:43:09.956Z,10.20
2023-05-09T01:44:15.829Z,10.19
2023-05-09T01:45:19.919Z,10.18
2023-05-09T01:46:23.756Z,10.18
2023-05-09T01:47:27.477Z,10.14
2023-05-09T01:48:31.728Z,10.14
2023-05-09T01:49:37.640Z,10.11
2023-05-09T01:50:42.891Z,10.11
2023-05-09T01:51:45.910Z,10.09
2023-05-09T01:52:53.225Z,10.07
2023-05-09T01:53:58.457Z,10.06
2023-05-09T01:55:02.385Z,10.06
2023-05-09T01:56:07.846Z,10.06
2023-05-09T01:57:12.800Z,10.07
2023-05-09T01:58:18.209Z,10.05
2023-05-09T01:59:21.629Z,10.03
2023-05-09T02:00:25.094Z,10.02
2023-05-09T02:01:28.306Z,10.03
2023-05-09T02:02:30.924Z,10.01
2023-05-09T02:03:35.907Z,10.00
2023-05-09T02:04:40.516Z,10.00
2023-05-09T02:05:44.277Z,9.99
2023-05-09T02:06:52.900Z,9.99
2023-05-09T02:07:58.524Z,9.99
2023-05-09T02:09:02.944Z,9.99
2023-05-09T02:10:09.032Z,9.97
2023-05-09T02:11:11.082Z,9.98
2023-05-09T02:12:13.693Z,9.99
2023-05-09T02:13:15.865Z,9.97
2023-05-09T02:14:17.904Z,9.97
2023-05-09T02:15:20.115Z,9.96
2023-05-09T02:16:22.469Z,9.96
2023-05-09T02:17:24.473Z,9.94
2023-05-09T02:18:26.358Z,9.96
2023-05-09T02:19:28.375Z,9.96
2023-05-09T02:20:31.376Z,9.96
2023-05-09T02:21:33.411Z,9.98
2023-05-09T02:22:35.875Z,9.97
2023-05-09T02:23:37.729Z,9.97
2023-05-09T02:24:40.799Z,9.94
2023-05-09T02:25:43.274Z,9.93
2023-05-09T02:26:45.338Z,9.93
2023-05-09T02:27:47.536Z,9.92
2023-05-09T02:28:50.885Z,9.88
2023-05-09T02:29:58.354Z,9.90
2023-05-09T02:31:07.025Z,9.88
2023-05-09T02:32:16.301Z,9.90
2023-05-09T02:33:18.300Z,9.89
2023-05-09T02:34:21.062Z,9.87
2023-05-09T02:35:27.139Z,9.88
2023-05-09T02:36:30.023Z,9.88
2023-05-09T02:37:33.832Z,9.89
2023-05-09T02:38:36.831Z,9.88
2023-05-09T02:39:38.883Z,9.87
2023-05-09T02:40:44.412Z,9.87
2023-05-09T02:41:49.769Z,9.85
2023-05-09T02:42:51.598Z,9.83
2023-05-09T02:43:53.374Z,9.82
2023-05-09T02:44:56.272Z,9.82
2023-05-09T02:45:58.033Z,9.82
2023-05-09T02:47:00.142Z,9.83
2023-05-09T02:48:01.943Z,9.80
2023-05-09T02:49:03.752Z,9.80
2023-05-09T02:50:06.830Z,9.80
2023-05-09T02:51:08.608Z,9.81
2023-05-09T02:52:11.453Z,9.79
2023-05-09T02:53:13.239Z,9.77
2023-05-09T02:54:15.015Z,9.78
2023-05-09T02:55:16.909Z,9.76
2023-05-09T02:56:19.045Z,9.77
2023-05-09T02:57:21.129Z,9.76
2023-05-09T02:58:22.921Z,9.77
2023-05-09T02:59:25.760Z,9.78
2023-05-09T03:00:27.856Z,9.74
2023-05-09T03:01:29.676Z,9.75
2023-05-09T03:02:31.638Z,9.74
2023-05-09T03:03:34.819Z,9.73
2023-05-09T03:04:36.902Z,9.71
2023-05-09T03:05:38.846Z,9.72
2023-05-09T03:06:41.052Z,9.68
2023-05-09T03:07:42.817Z,9.65
2023-05-09T03:08:44.559Z,9.64
2023-05-09T03:09:46.318Z,9.63
2023-05-09T03:10:48.162Z,9.63
2023-05-09T03:11:50.543Z,9.63
2023-05-09T03:12:52.375Z,9.62
2023-05-09T03:13:54.153Z,9.61
2023-05-09T03:14:55.902Z,9.61
2023-05-09T03:15:57.656Z,9.58
2023-05-09T03:16:59.489Z,9.59
2023-05-09T03:18:01.301Z,9.58
2023-05-09T03:19:03.952Z,9.57
2023-05-09T03:20:07.782Z,9.56
2023-05-09T03:21:09.689Z,9.53
2023-05-09T03:22:11.467Z,9.54
2023-05-09T03:23:13.290Z,9.53
2023-05-09T03:24:15.165Z,9.53
2023-05-09T03:25:17.292Z,9.54
2023-05-09T03:26:19.343Z,9.52
2023-05-09T03:27:21.104Z,9.51
2023-05-09T03:28:22.941Z,9.52
2023-05-09T03:29:24.733Z,9.52
2023-05-09T03:30:27.152Z,9.50
2023-05-09T03:31:28.998Z,9.51
2023-05-09T03:32:30.905Z,9.49
2023-05-09T03:33:32.822Z,9.50
2023-05-09T03:34:34.690Z,9.49
2023-05-09T03:35:36.446Z,9.48
2023-05-09T03:36:38.262Z,9.48
2023-05-09T03:37:40.077Z,9.48
2023-05-09T03:38:41.801Z,9.47
2023-05-09T03:39:43.545Z,9.48
2023-05-09T03:40:45.340Z,9.47
2023-05-09T03:41:47.105Z,9.46
2023-05-09T03:42:48.896Z,9.45
2023-05-09T03:43:50.673Z,9.44
2023-05-09T03:44:52.892Z,9.43
2023-05-09T03:45:54.640Z,9.42
2023-05-09T03:46:56.382Z,9.41
2023-05-09T03:47:58.345Z,9.39
2023-05-09T03:49:00.232Z,9.37
2023-05-09T03:50:02.230Z,9.34
2023-05-09T03:51:04.090Z,9.36
2023-05-09T03:52:05.977Z,9.34
2023-05-09T03:53:07.765Z,9.34
2023-05-09T03:54:09.719Z,9.35
2023-05-09T03:55:12.008Z,9.34
2023-05-09T03:56:14.844Z,9.34
2023-05-09T03:57:16.627Z,9.34
2023-05-09T03:58:19.382Z,9.36
2023-05-09T03:59:21.270Z,9.35
2023-05-09T04:00:23.226Z,9.34
2023-05-09T04:01:25.567Z,9.33
2023-05-09T04:02:27.704Z,9.33
2023-05-09T04:03:29.817Z,9.33
2023-05-09T04:04:31.753Z,9.32
2023-05-09T04:05:33.702Z,9.30
2023-05-09T04:06:36.292Z,9.32
2023-05-09T04:07:38.199Z,9.30
2023-05-09T04:08:40.234Z,9.30
2023-05-09T04:09:42.819Z,9.28
2023-05-09T04:10:44.679Z,9.29
2023-05-09T04:11:46.628Z,9.26
2023-05-09T04:12:48.558Z,9.25
2023-05-09T04:13:50.458Z,9.27
2023-05-09T04:14:52.207Z,9.26
2023-05-09T04:15:54.094Z,9.25
2023-05-09T04:16:55.920Z,9.26
2023-05-09T04:17:57.797Z,9.26
2023-05-09T04:18:59.535Z,9.28
2023-05-09T04:20:01.353Z,9.26
2023-05-09T04:21:03.229Z,9.26
2023-05-09T04:22:05.151Z,9.25
2023-05-09T04:23:06.901Z,9.24
2023-05-09T04:24:08.812Z,9.25
2023-05-09T04:25:12.387Z,9.22
2023-05-09T04:26:15.492Z,9.22
2023-05-09T04:27:17.248Z,9.21
2023-05-09T04:28:18.986Z,9.21
2023-05-09T04:29:20.780Z,9.23
2023-05-09T04:30:22.642Z,9.24
2023-05-09T04:31:24.483Z,9.22
2023-05-09T04:32:26.959Z,9.23
2023-05-09T04:33:29.086Z,9.22
2023-05-09T04:34:31.677Z,9.23
2023-05-09T04:35:33.475Z,9.21
2023-05-09T04:36:35.227Z,9.21
2023-05-09T04:37:37.017Z,9.22
2023-05-09T04:38:38.800Z,9.21
2023-05-09T04:39:40.675Z,9.21
2023-05-09T04:40:42.563Z,9.20
2023-05-09T04:41:46.529Z,9.20
2023-05-09T04:42:48.377Z,9.21
2023-05-09T04:43:50.119Z,9.20
2023-05-09T04:44:52.437Z,9.22
2023-05-09T04:45:54.538Z,9.22
2023-05-09T04:46:57.978Z,9.23
2023-05-09T04:47:59.768Z,9.22
2023-05-09T04:49:01.722Z,9.24
2023-05-09T04:50:04.112Z,9.25
2023-05-09T04:51:06.080Z,9.24
2023-05-09T04:52:08.446Z,9.24
2023-05-09T04:53:10.977Z,9.26
2023-05-09T04:54:12.770Z,9.26
2023-05-09T04:55:14.993Z,9.25
2023-05-09T04:56:16.969Z,9.26
2023-05-09T04:57:19.181Z,9.28
2023-05-09T04:58:21.106Z,9.28
2023-05-09T04:59:23.436Z,9.29
2023-05-09T05:00:25.520Z,9.30
2023-05-09T05:01:27.346Z,9.30
2023-05-09T05:02:29.243Z,9.30
2023-05-09T05:03:31.836Z,9.32
2023-05-09T05:04:33.643Z,9.33
2023-05-09T05:05:37.522Z,9.35
2023-05-09T05:06:39.613Z,9.36
2023-05-09T05:07:41.386Z,9.38
2023-05-09T05:08:43.247Z,9.41
2023-05-09T05:09:45.026Z,9.43
2023-05-09T05:10:47.523Z,9.44
2023-05-09T05:11:59.566Z,9.46
2023-05-09T05:13:03.806Z,9.47
2023-05-09T05:14:05.574Z,9.50
2023-05-09T05:15:07.994Z,9.49
2023-05-09T05:16:09.956Z,9.54
2023-05-09T05:17:11.776Z,9.55
2023-05-09T05:18:13.554Z,9.58
2023-05-09T05:19:15.341Z,9.60
2023-05-09T05:20:17.146Z,9.63
2023-05-09T05:21:18.931Z,9.65
2023-05-09T05:22:20.762Z,9.67
2023-05-09T05:23:22.599Z,9.68
2023-05-09T05:24:24.422Z,9.70
2023-05-09T05:25:26.995Z,9.73
2023-05-09T05:26:29.155Z,9.75
2023-05-09T05:27:31.793Z,9.77
2023-05-09T05:28:33.569Z,9.78
2023-05-09T05:29:35.341Z,9.81
2023-05-09T05:30:37.141Z,9.82
2023-05-09T05:31:38.895Z,9.82
2023-05-09T05:32:40.892Z,9.84
2023-05-09T05:33:42.622Z,9.86
2023-05-09T05:34:44.380Z,9.88
2023-05-09T05:35:46.245Z,9.88
2023-05-09T05:36:47.994Z,9.89
2023-05-09T05:37:49.741Z,9.91
2023-05-09T05:38:51.578Z,9.90
2023-05-09T05:39:54.358Z,9.93
2023-05-09T05:40:56.206Z,9.95
2023-05-09T05:41:57.958Z,10.01
2023-05-09T05:42:59.718Z,10.03
2023-05-09T05:44:01.504Z,10.07
2023-05-09T05:45:06.342Z,10.10
2023-05-09T05:46:08.147Z,10.16
2023-05-09T05:47:09.911Z,10.21
2023-05-09T05:48:11.725Z,10.25
2023-05-09T05:49:13.526Z,10.28
2023-05-09T05:50:15.284Z,10.30
2023-05-09T05:51:17.053Z,10.35
2023-05-09T05:52:19.208Z,10.38
2023-05-09T05:53:21.029Z,10.40
2023-05-09T05:54:22.865Z,10.46
2023-05-09T05:55:24.706Z,10.50
2023-05-09T05:56:26.468Z,10.57
2023-05-09T05:57:28.255Z,10.60
2023-05-09T05:58:30.100Z,10.63
2023-05-09T05:59:31.847Z,10.71
2023-05-09T06:00:33.691Z,10.78
2023-05-09T06:01:35.447Z,10.83
2023-05-09T06:02:38.078Z,10.89
2023-05-09T06:03:40.087Z,10.99
2023-05-09T06:04:42.354Z,11.10
2023-05-09T06:05:46.398Z,11.23
2023-05-09T06:06:48.246Z,11.34
2023-05-09T06:07:49.973Z,11.41
2023-05-09T06:08:51.855Z,11.47
2023-05-09T06:09:53.616Z,11.52
2023-05-09T06:10:55.367Z,11.53
2023-05-09T06:11:57.177Z,11.57
2023-05-09T06:12:58.942Z,11.60
2023-05-09T06:14:00.718Z,11.65
2023-05-09T06:15:05.696Z,11.73
2023-05-09T06:16:18.761Z,11.82
2023-05-09T06:17:22.119Z,11.88
2023-05-09T06:18:23.983Z,11.92
2023-05-09T06:19:25.923Z,12.00
2023-05-09T06:20:27.957Z,12.08
2023-05-09T06:21:30.130Z,12.19
2023-05-09T06:22:31.944Z,12.28
2023-05-09T06:23:34.124Z,12.41
2023-05-09T06:24:36.623Z,12.55
2023-05-09T06:25:38.580Z,12.64
2023-05-09T06:26:40.571Z,12.77
2023-05-09T06:27:42.597Z,12.79
2023-05-09T06:28:44.435Z,12.76
2023-05-09T06:29:46.167Z,12.68
2023-05-09T06:30:47.914Z,12.64
2023-05-09T06:31:49.712Z,12.60
2023-05-09T06:32:51.526Z,12.60
2023-05-09T06:33:53.972Z,12.58
2023-05-09T06:34:55.959Z,12.63
2023-05-09T06:36:00.226Z,12.70
2023-05-09T06:37:02.012Z,12.76
2023-05-09T06:38:03.880Z,12.85
2023-05-09T06:39:05.914Z,12.89
2023-05-09T06:40:09.022Z,12.90
2023-05-09T06:41:10.804Z,12.93
2023-05-09T06:42:12.672Z,12.95
2023-05-09T06:43:14.500Z,12.95
2023-05-09T06:44:16.209Z,13.01
2023-05-09T06:45:18.331Z,13.05
2023-05-09T06:46:20.547Z,13.15
2023-05-09T06:47:22.405Z,13.26
2023-05-09T06:48:24.265Z,13.32
2023-05-09T06:49:26.429Z,13.38
2023-05-09T06:50:29.088Z,13.48
2023-05-09T06:51:32.004Z,13.62
2023-05-09T06:52:33.777Z,13.76
2023-05-09T06:53:35.591Z,13.81
2023-05-09T06:54:37.377Z,13.87
2023-05-09T06:55:39.194Z,13.90
2023-05-09T06:56:41.176Z,13.91
2023-05-09T06:57:43.094Z,13.91
2023-05-09T06:58:44.875Z,13.92
2023-05-09T06:59:46.756Z,13.95
2023-05-09T07:00:49.061Z,13.99
2023-05-09T07:01:50.878Z,14.04
2023-05-09T07:02:52.887Z,14.11
2023-05-09T07:03:54.723Z,14.13
2023-05-09T07:05:00.251Z,14.08
2023-05-09T07:06:02.082Z,14.01
2023-05-09T07:07:03.859Z,14.04
2023-05-09T07:08:05.742Z,14.06
2023-05-09T07:09:08.590Z,14.12
2023-05-09T07:10:12.594Z,14.29
2023-05-09T07:11:15.072Z,14.44
2023-05-09T07:12:16.949Z,14.65
2023-05-09T07:13:18.796Z,14.71
2023-05-09T07:14:20.793Z,14.84
2023-05-09T07:15:32.953Z,14.94
2023-05-09T07:16:42.818Z,15.04
2023-05-09T07:17:44.784Z,15.17
2023-05-09T07:18:46.715Z,15.38
2023-05-09T07:19:48.538Z,15.43
2023-05-09T07:20:50.954Z,15.37
2023-05-09T07:21:52.794Z,15.31
2023-05-09T07:22:54.552Z,15.24
2023-05-09T07:23:56.283Z,15.16
2023-05-09T07:24:58.247Z,15.14
2023-05-09T07:26:01.308Z,15.05
2023-05-09T07:27:03.840Z,15.08
2023-05-09T07:28:06.036Z,15.17
2023-05-09T07:29:07.869Z,15.29
2023-05-09T07:30:10.465Z,15.50
2023-05-09T07:31:12.402Z,15.64
2023-05-09T07:32:14.345Z,15.63
2023-05-09T07:33:16.150Z,15.62
2023-05-09T07:34:19.828Z,15.64
2023-05-09T07:35:22.341Z,15.66
2023-05-09T07:36:24.328Z,15.65
2023-05-09T07:37:26.751Z,15.74
2023-05-09T07:38:28.825Z,15.94
2023-05-09T07:39:30.887Z,16.06
2023-05-09T07:40:36.306Z,16.26
2023-05-09T07:41:38.105Z,16.43
2023-05-09T07:42:39.898Z,16.59
2023-05-09T07:43:41.701Z,16.78
2023-05-09T07:44:43.602Z,16.92
2023-05-09T07:45:47.100Z,17.06
2023-05-09T07:46:49.037Z,17.12
2023-05-09T07:47:50.884Z,17.11
2023-05-09T07:48:52.721Z,17.11
2023-05-09T07:49:54.508Z,17.09
2023-05-09T07:50:56.450Z,17.00
2023-05-09T07:51:58.388Z,17.13
2023-05-09T07:53:00.190Z,17.32
2023-05-09T07:54:02.047Z,17.46
2023-05-09T07:55:04.226Z,17.63
2023-05-09T07:56:08.922Z,17.66
2023-05-09T07:57:11.065Z,17.68
2023-05-09T07:58:12.903Z,17.61
2023-05-09T07:59:14.660Z,17.53
2023-05-09T08:00:17.386Z,17.51
2023-05-09T08:01:19.135Z,17.51
2023-05-09T08:02:21.009Z,17.42
2023-05-09T08:03:22.927Z,17.30
2023-05-09T08:04:25.013Z,17.15
2023-05-09T08:05:26.902Z,17.03
2023-05-09T08:06:28.883Z,16.93
2023-05-09T08:07:31.094Z,16.82
2023-05-09T08:08:33.327Z,16.74
2023-05-09T08:09:35.283Z,16.66
2023-05-09T08:10:37.080Z,16.61
2023-05-09T08:11:39.026Z,16.73
2023-05-09T08:12:40.831Z,16.82
2023-05-09T08:13:42.622Z,16.82
2023-05-09T08:14:44.364Z,16.88
2023-05-09T08:15:46.174Z,16.99
2023-05-09T08:16:48.004Z,17.11
2023-05-09T08:17:49.797Z,17.16
2023-05-09T08:18:51.663Z,17.20
2023-05-09T08:19:53.453Z,17.21
2023-05-09T08:20:55.351Z,17.16
2023-05-09T08:21:57.091Z,17.12
2023-05-09T08:22:58.851Z,17.23
2023-05-09T08:24:01.779Z,17.25
2023-05-09T08:25:03.570Z,17.29
2023-05-09T08:26:05.676Z,17.29
2023-05-09T08:27:07.457Z,17.30
2023-05-09T08:28:09.427Z,17.31
2023-05-09T08:29:11.959Z,17.33
2023-05-09T08:30:14.853Z,17.36
2023-05-09T08:31:16.856Z,17.44
2023-05-09T08:32:19.858Z,17.53
2023-05-09T08:33:21.652Z,17.53
2023-05-09T08:34:23.472Z,17.63
2023-05-09T08:35:25.326Z,17.76
2023-05-09T08:36:27.088Z,17.95
2023-05-09T08:37:29.077Z,18.07
2023-05-09T08:38:30.923Z,18.15
2023-05-09T08:39:34.900Z,18.09
2023-05-09T08:40:38.082Z,18.03
2023-05-09T08:41:40.072Z,17.99
2023-05-09T08:42:46.072Z,18.00
2023-05-09T08:43:49.787Z,18.11
2023-05-09T08:44:51.898Z,18.17
2023-05-09T08:46:05.583Z,18.14
2023-05-09T08:47:08.375Z,18.20
2023-05-09T08:48:10.412Z,18.29
2023-05-09T08:49:12.567Z,18.36
2023-05-09T08:50:15.537Z,18.39
2023-05-09T08:51:18.117Z,18.39
2023-05-09T08:52:21.520Z,18.34
2023-05-09T08:53:23.640Z,18.21
2023-05-09T08:54:25.630Z,18.06
2023-05-09T08:55:28.765Z,17.90
2023-05-09T08:56:31.760Z,17.84
2023-05-09T08:57:37.496Z,17.82
2023-05-09T08:58:40.231Z,17.78
2023-05-09T08:59:43.088Z,17.71
2023-05-09T09:00:47.117Z,17.73
2023-05-09T09:01:49.775Z,17.77
2023-05-09T09:02:53.103Z,17.86
2023-05-09T09:03:55.669Z,17.94
2023-05-09T09:04:57.551Z,18.07
2023-05-09T09:06:00.991Z,18.26
2023-05-09T09:07:06.263Z,18.46
2023-05-09T09:08:10.891Z,18.58
2023-05-09T09:09:15.292Z,18.53
2023-05-09T09:10:17.701Z,18.40
2023-05-09T09:11:20.605Z,18.32
2023-05-09T09:12:24.225Z,18.22
2023-05-09T09:13:26.854Z,18.10
2023-05-09T09:14:31.305Z,17.97
2023-05-09T09:15:37.584Z,18.05
2023-05-09T09:16:44.397Z,18.16
2023-05-09T09:17:51.958Z,18.34
2023-05-09T09:18:58.452Z,18.53
2023-05-09T09:20:05.812Z,18.56
2023-05-09T09:21:12.189Z,18.61
2023-05-09T09:22:19.024Z,18.80
2023-05-09T09:23:27.086Z,19.01
2023-05-09T09:24:30.786Z,19.05
2023-05-09T09:25:32.552Z,19.08
2023-05-09T09:26:34.355Z,19.17
2023-05-09T09:27:36.437Z,19.38
2023-05-09T09:28:38.278Z,19.75
2023-05-09T09:29:40.184Z,19.98
2023-05-09T09:30:48.728Z,20.00
2023-05-09T09:31:55.169Z,19.92
2023-05-09T09:32:59.629Z,19.75
2023-05-09T09:34:03.358Z,19.74
2023-05-09T09:35:12.302Z,19.88
2023-05-09T09:36:14.300Z,19.96
2023-05-09T09:37:23.539Z,20.04
2023-05-09T09:38:25.419Z,20.12
2023-05-09T09:39:27.211Z,19.86
2023-05-09T09:40:29.032Z,19.64
2023-05-09T09:41:32.748Z,19.42
2023-05-09T09:42:47.838Z,19.19
2023-05-09T09:43:49.605Z,19.22
2023-05-09T09:45:03.318Z,19.39
2023-05-09T09:46:05.915Z,19.33
2023-05-09T09:47:10.988Z,19.31
2023-05-09T09:48:12.807Z,19.34
2023-05-09T09:49:21.372Z,19.37
2023-05-09T09:50:24.906Z,19.14
2023-05-09T09:51:28.987Z,18.98
2023-05-09T09:52:30.820Z,18.90
2023-05-09T09:53:43.475Z,19.01
2023-05-09T09:54:45.948Z,19.04
2023-05-09T09:55:52.005Z,19.08
2023-05-09T09:56:55.367Z,19.07
2023-05-09T09:57:57.423Z,19.11
2023-05-09T09:59:23.495Z,19.36
2023-05-09T10:00:28.432Z,19.59
2023-05-09T10:01:30.249Z,19.72
2023-05-09T10:02:32.549Z,19.83
2023-05-09T10:03:48.133Z,20.04
2023-05-09T10:04:49.993Z,20.29
2023-05-09T10:06:02.650Z,20.68
2023-05-09T10:07:12.892Z,20.86
2023-05-09T10:08:17.222Z,20.92
2023-05-09T10:09:19.040Z,20.75
2023-05-09T10:10:21.717Z,20.57
2023-05-09T10:11:23.636Z,20.33
2023-05-09T10:12:25.916Z,20.26
2023-05-09T10:13:29.076Z,20.05
2023-05-09T10:14:35.307Z,19.74
2023-05-09T10:15:52.321Z,19.66
2023-05-09T10:16:58.072Z,19.47
2023-05-09T10:18:04.320Z,19.37
2023-05-09T10:19:06.887Z,19.20
2023-05-09T10:20:12.547Z,18.99
2023-05-09T10:21:15.774Z,18.84
2023-05-09T10:22:19.884Z,18.74
2023-05-09T10:23:25.355Z,18.65
2023-05-09T10:24:44.976Z,18.57
2023-05-09T10:26:15.550Z,18.46
2023-05-09T10:27:22.986Z,18.46
2023-05-09T10:28:35.024Z,18.38
2023-05-09T10:29:49.134Z,18.34
2023-05-09T10:31:08.862Z,18.42
2023-05-09T10:33:02.811Z,18.55
2023-05-09T10:34:12.007Z,18.67
2023-05-09T10:35:17.129Z,18.69
2023-05-09T10:36:23.792Z,18.66
2023-05-09T10:37:26.651Z,18.64
2023-05-09T10:38:30.366Z,18.69
2023-05-09T10:39:32.976Z,18.73
2023-05-09T10:40:35.602Z,18.86
2023-05-09T10:41:40.135Z,18.90
2023-05-09T10:42:45.652Z,18.92
2023-05-09T10:43:48.416Z,18.96
2023-05-09T10:44:53.730Z,18.99
2023-05-09T10:45:55.879Z,18.99
2023-05-09T10:46:59.398Z,18.95
2023-05-09T10:48:03.958Z,18.93
2023-05-09T10:49:07.152Z,18.89
2023-05-09T10:50:13.093Z,18.82
2023-05-09T10:51:16.318Z,18.80
2023-05-09T10:52:18.944Z,18.90
2023-05-09T10:53:24.173Z,18.98
2023-05-09T10:54:31.046Z,19.00
2023-05-09T10:56:00.231Z,18.97
2023-05-09T10:57:02.166Z,18.93
2023-05-09T10:58:27.573Z,18.83
2023-05-09T10:59:42.827Z,18.74
2023-05-09T11:00:45.692Z,18.64
2023-05-09T11:02:00.853Z,18.63
2023-05-09T11:03:08.960Z,18.66
2023-05-09T11:04:16.640Z,18.74
2023-05-09T11:05:20.291Z,18.88
2023-05-09T11:06:51.948Z,18.95
2023-05-09T11:08:31.071Z,19.02
2023-05-09T11:09:37.999Z,19.02
2023-05-09T11:10:43.179Z,18.96
2023-05-09T11:11:54.384Z,18.96
2023-05-09T11:13:00.782Z,18.98
2023-05-09T11:14:02.697Z,18.93
2023-05-09T11:15:08.075Z,18.74
2023-05-09T11:16:12.245Z,18.58
2023-05-09T11:17:23.220Z,18.56
2023-05-09T11:18:25.398Z,18.45
2023-05-09T11:19:45.353Z,18.41
2023-05-09T11:20:49.602Z,18.39
2023-05-09T11:22:03.324Z,18.39
2023-05-09T11:23:06.813Z,18.44
2023-05-09T11:24:17.618Z,18.49
2023-05-09T11:25:28.477Z,18.56
2023-05-09T11:26:31.235Z,18.58
2023-05-09T11:27:51.965Z,18.58
2023-05-09T11:28:54.784Z,18.63
2023-05-09T11:29:59.868Z,18.68
2023-05-09T11:31:19.166Z,18.73
2023-05-09T11:32:31.955Z,18.77
2023-05-09T11:33:38.357Z,18.74
2023-05-09T11:34:47.801Z,18.65
2023-05-09T11:36:29.915Z,18.56
2023-05-09T11:37:32.497Z,18.57
2023-05-09T11:38:42.768Z,18.63
2023-05-09T11:40:04.769Z,18.77
2023-05-09T11:41:07.306Z,18.90
2023-05-09T11:42:09.387Z,18.99
2023-05-09T11:43:12.598Z,19.00
2023-05-09T11:44:20.957Z,18.96
2023-05-09T11:45:27.429Z,18.82
2023-05-09T11:46:29.535Z,18.70
2023-05-09T11:47:31.525Z,18.67
2023-05-09T11:48:42.148Z,18.76
2023-05-09T11:49:44.749Z,18.83
2023-05-09T11:50:49.436Z,18.86
2023-05-09T11:51:51.197Z,18.89
2023-05-09T11:52:54.228Z,18.91
2023-05-09T11:53:56.113Z,18.82
2023-05-09T11:54:59.370Z,18.79
2023-05-09T11:56:07.794Z,18.78
2023-05-09T11:57:10.009Z,18.67
2023-05-09T11:58:12.183Z,18.62
2023-05-09T11:59:15.749Z,18.64
2023-05-09T12:00:23.607Z,18.63
2023-05-09T12:01:25.658Z,18.63
2023-05-09T12:02:28.548Z,18.64
2023-05-09T12:03:30.899Z,18.66
2023-05-09T12:04:34.302Z,18.72
2023-05-09T12:05:39.485Z,18.71
2023-05-09T12:06:48.263Z,18.70
2023-05-09T12:07:51.024Z,18.66
2023-05-09T12:08:56.013Z,18.65
2023-05-09T12:10:02.742Z,18.60
2023-05-09T12:11:11.549Z,18.59
2023-05-09T12:12:14.431Z,18.57
2023-05-09T12:13:16.395Z,18.59
2023-05-09T12:14:30.511Z,18.64
2023-05-09T12:15:43.091Z,18.73
2023-05-09T12:16:47.487Z,18.80
2023-05-09T12:18:06.789Z,18.81
2023-05-09T12:19:10.362Z,18.84
2023-05-09T12:20:12.680Z,18.89
2023-05-09T12:21:15.556Z,18.88
2023-05-09T12:22:17.364Z,18.87
2023-05-09T12:23:19.675Z,18.85
2023-05-09T12:24:24.592Z,18.90
2023-05-09T12:25:26.955Z,18.94
2023-05-09T12:26:29.447Z,18.96
2023-05-09T12:27:33.052Z,18.97
2023-05-09T12:28:36.666Z,19.01
2023-05-09T12:29:40.335Z,19.07
2023-05-09T12:30:42.257Z,19.12
2023-05-09T12:31:44.745Z,19.16
2023-05-09T12:32:46.823Z,19.21
2023-05-09T12:33:48.924Z,19.20
2023-05-09T12:34:52.036Z,19.19
2023-05-09T12:36:10.931Z,19.21
2023-05-09T12:37:20.290Z,19.13
2023-05-09T12:38:23.094Z,19.09
2023-05-09T12:39:24.873Z,19.05
2023-05-09T12:40:26.840Z,19.07
2023-05-09T12:41:39.177Z,19.07
2023-05-09T12:42:46.446Z,19.07
2023-05-09T12:43:51.490Z,19.11
2023-05-09T12:44:53.620Z,19.17
2023-05-09T12:45:55.426Z,19.24
2023-05-09T12:47:03.701Z,19.31
2023-05-09T12:48:06.059Z,19.36
2023-05-09T12:49:21.862Z,19.40
2023-05-09T12:50:36.724Z,19.40
2023-05-09T12:51:53.467Z,19.36
2023-05-09T12:53:02.522Z,19.38
2023-05-09T12:54:07.981Z,19.41
2023-05-09T12:55:13.974Z,19.40
2023-05-09T12:56:20.230Z,19.35
2023-05-09T12:57:25.188Z,19.28
2023-05-09T12:58:33.657Z,19.32
2023-05-09T12:59:35.416Z,19.32
2023-05-09T13:00:45.349Z,19.32
2023-05-09T13:01:54.630Z,19.27
2023-05-09T13:02:56.842Z,19.21
2023-05-09T13:04:06.618Z,19.17
2023-05-09T13:05:15.897Z,19.14
2023-05-09T13:06:18.133Z,19.07
2023-05-09T13:07:19.905Z,18.99
2023-05-09T13:08:21.899Z,18.96
2023-05-09T13:09:26.168Z,18.96
2023-05-09T13:10:31.073Z,19.05
2023-05-09T13:11:32.940Z,19.17
2023-05-09T13:12:34.940Z,19.25
2023-05-09T13:13:37.556Z,19.33
2023-05-09T13:14:39.406Z,19.36
2023-05-09T13:15:41.420Z,19.37
2023-05-09T13:16:44.760Z,19.33
2023-05-09T13:17:48.659Z,19.27
2023-05-09T13:18:50.644Z,19.29
2023-05-09T13:19:52.401Z,19.30
2023-05-09T13:20:54.217Z,19.33
2023-05-09T13:21:56.048Z,19.38
2023-05-09T13:22:57.834Z,19.39
2023-05-09T13:23:59.625Z,19.40
2023-05-09T13:25:01.861Z,19.35
2023-05-09T13:26:03.718Z,19.31
2023-05-09T13:27:05.663Z,19.32
2023-05-09T13:28:07.851Z,19.32
2023-05-09T13:29:09.657Z,19.37
2023-05-09T13:30:12.821Z,19.39
2023-05-09T13:31:15.026Z,19.41
2023-05-09T13:32:16.993Z,19.38
2023-05-09T13:33:25.945Z,19.36
2023-05-09T13:34:28.531Z,19.33
2023-05-09T13:35:30.369Z,19.27
2023-05-09T13:36:32.517Z,19.24
2023-05-09T13:37:35.556Z,19.22
2023-05-09T13:38:40.471Z,19.15
2023-05-09T13:39:42.339Z,19.12
2023-05-09T13:40:44.082Z,19.02
2023-05-09T13:41:45.956Z,19.02
2023-05-09T13:42:48.931Z,19.00
2023-05-09T13:43:51.630Z,18.98
2023-05-09T13:44:53.420Z,18.97
2023-05-09T13:45:55.192Z,19.03
2023-05-09T13:46:58.606Z,19.08
2023-05-09T13:48:00.406Z,19.14
2023-05-09T13:49:02.264Z,19.17
2023-05-09T13:50:04.459Z,19.17
2023-05-09T13:51:07.695Z,19.19
2023-05-09T13:52:09.510Z,19.20
2023-05-09T13:53:11.259Z,19.22
2023-05-09T13:54:14.678Z,19.18
2023-05-09T13:55:16.720Z,19.13
2023-05-09T13:56:18.463Z,19.10